sensor_id;sensor_type;location;lat;lon;timestamp;P1;durP1;ratioP1;P2;durP2;ratioP2
21274;SDS011;36472;52.170;20.884;2023-02-18T00:01:07;4.80;;;1.55;;
21274;SDS011;36472;52.170;20.884;2023-02-18T00:03:37;7.55;;;2.00;;
21274;SDS011;36472;52.170;20.884;2023-02-18T00:06:11;5.88;;;1.77;;
21274;SDS011;36472;52.170;20.884;2023-02-18T00:08:43;4.65;;;1.58;;
21274;SDS011;36472;52.170;20.884;2023-02-18T00:11:15;6.50;;;1.65;;
21274;SDS011;36472;52.170;20.884;2023-02-18T00:13:48;6.60;;;2.10;;
21274;SDS011;36472;52.170;20.884;2023-02-18T00:16:18;3.75;;;1.58;;
21274;SDS011;36472;52.170;20.884;2023-02-18T00:18:47;4.03;;;2.22;;
21274;SDS011;36472;52.170;20.884;2023-02-18T00:21:17;6.78;;;2.53;;
21274;SDS011;36472;52.170;20.884;2023-02-18T00:23:46;4.80;;;1.98;;
21274;SDS011;36472;52.170;20.884;2023-02-18T00:26:17;7.65;;;1.98;;
21274;SDS011;36472;52.170;20.884;2023-02-18T00:28:47;5.25;;;1.88;;
21274;SDS011;36472;52.170;20.884;2023-02-18T00:31:20;7.18;;;2.58;;
21274;SDS011;36472;52.170;20.884;2023-02-18T00:33:51;10.13;;;2.03;;
21274;SDS011;36472;52.170;20.884;2023-02-18T00:36:22;4.32;;;1.73;;
21274;SDS011;36472;52.170;20.884;2023-02-18T00:38:52;8.57;;;2.00;;
21274;SDS011;36472;52.170;20.884;2023-02-18T00:41:25;8.55;;;2.03;;
21274;SDS011;36472;52.170;20.884;2023-02-18T00:43:56;3.97;;;1.90;;
21274;SDS011;36472;52.170;20.884;2023-02-18T00:46:25;7.55;;;2.22;;
21274;SDS011;36472;52.170;20.884;2023-02-18T00:48:56;9.95;;;1.98;;
21274;SDS011;36472;52.170;20.884;2023-02-18T00:51:25;6.75;;;1.73;;
21274;SDS011;36472;52.170;20.884;2023-02-18T00:53:54;6.38;;;2.20;;
21274;SDS011;36472;52.170;20.884;2023-02-18T00:56:25;6.57;;;1.58;;
21274;SDS011;36472;52.170;20.884;2023-02-18T00:58:54;9.32;;;1.90;;
21274;SDS011;36472;52.170;20.884;2023-02-18T01:01:23;8.23;;;2.13;;
21274;SDS011;36472;52.170;20.884;2023-02-18T01:03:54;7.43;;;2.25;;
21274;SDS011;36472;52.170;20.884;2023-02-18T01:06:23;6.57;;;2.00;;
21274;SDS011;36472;52.170;20.884;2023-02-18T01:08:52;6.13;;;2.05;;
21274;SDS011;36472;52.170;20.884;2023-02-18T01:11:21;5.13;;;1.85;;
21274;SDS011;36472;52.170;20.884;2023-02-18T01:13:51;8.32;;;1.70;;
21274;SDS011;36472;52.170;20.884;2023-02-18T01:16:20;3.63;;;1.60;;
21274;SDS011;36472;52.170;20.884;2023-02-18T01:18:50;5.43;;;1.92;;
21274;SDS011;36472;52.170;20.884;2023-02-18T01:21:19;8.25;;;2.08;;
21274;SDS011;36472;52.170;20.884;2023-02-18T01:23:48;4.40;;;1.50;;
21274;SDS011;36472;52.170;20.884;2023-02-18T01:26:17;5.13;;;1.80;;
21274;SDS011;36472;52.170;20.884;2023-02-18T01:28:46;7.50;;;1.88;;
21274;SDS011;36472;52.170;20.884;2023-02-18T01:31:16;10.52;;;2.33;;
21274;SDS011;36472;52.170;20.884;2023-02-18T01:33:45;5.85;;;1.80;;
21274;SDS011;36472;52.170;20.884;2023-02-18T01:36:15;7.25;;;2.00;;
21274;SDS011;36472;52.170;20.884;2023-02-18T01:38:44;10.18;;;2.33;;
21274;SDS011;36472;52.170;20.884;2023-02-18T01:41:13;9.55;;;2.28;;
21274;SDS011;36472;52.170;20.884;2023-02-18T01:43:42;7.30;;;2.22;;
21274;SDS011;36472;52.170;20.884;2023-02-18T01:46:17;5.97;;;1.73;;
21274;SDS011;36472;52.170;20.884;2023-02-18T01:48:49;10.50;;;1.80;;
21274;SDS011;36472;52.170;20.884;2023-02-18T01:51:23;6.57;;;1.92;;
21274;SDS011;36472;52.170;20.884;2023-02-18T01:53:58;6.43;;;1.80;;
21274;SDS011;36472;52.170;20.884;2023-02-18T01:56:35;7.95;;;1.70;;
21274;SDS011;36472;52.170;20.884;2023-02-18T01:59:12;11.10;;;2.40;;
21274;SDS011;36472;52.170;20.884;2023-02-18T02:01:47;7.18;;;2.10;;
21274;SDS011;36472;52.170;20.884;2023-02-18T02:04:16;11.13;;;1.90;;
21274;SDS011;36472;52.170;20.884;2023-02-18T02:06:46;4.72;;;1.90;;
21274;SDS011;36472;52.170;20.884;2023-02-18T02:09:15;9.10;;;2.22;;
21274;SDS011;36472;52.170;20.884;2023-02-18T02:11:52;5.57;;;1.80;;
21274;SDS011;36472;52.170;20.884;2023-02-18T02:15:02;10.57;;;2.38;;
21274;SDS011;36472;52.170;20.884;2023-02-18T02:17:53;6.75;;;2.13;;
21274;SDS011;36472;52.170;20.884;2023-02-18T02:24:26;7.38;;;2.22;;
21274;SDS011;36472;52.170;20.884;2023-02-18T02:27:28;8.57;;;1.83;;
21274;SDS011;36472;52.170;20.884;2023-02-18T02:33:35;7.50;;;1.75;;
21274;SDS011;36472;52.170;20.884;2023-02-18T02:36:52;7.47;;;2.00;;
21274;SDS011;36472;52.170;20.884;2023-02-18T02:39:30;6.50;;;2.35;;
21274;SDS011;36472;52.170;20.884;2023-02-18T02:42:12;5.68;;;2.10;;
21274;SDS011;36472;52.170;20.884;2023-02-18T02:44:58;6.90;;;1.95;;
21274;SDS011;36472;52.170;20.884;2023-02-18T02:47:40;7.13;;;2.00;;
21274;SDS011;36472;52.170;20.884;2023-02-18T02:50:21;8.70;;;1.95;;
21274;SDS011;36472;52.170;20.884;2023-02-18T02:53:04;6.68;;;1.98;;
21274;SDS011;36472;52.170;20.884;2023-02-18T02:55:41;9.15;;;2.30;;
21274;SDS011;36472;52.170;20.884;2023-02-18T02:58:12;12.13;;;2.30;;
21274;SDS011;36472;52.170;20.884;2023-02-18T03:00:48;9.93;;;1.83;;
21274;SDS011;36472;52.170;20.884;2023-02-18T03:03:43;8.63;;;2.22;;
21274;SDS011;36472;52.170;20.884;2023-02-18T03:06:53;9.57;;;2.45;;
21274;SDS011;36472;52.170;20.884;2023-02-18T03:10:09;9.07;;;2.53;;
21274;SDS011;36472;52.170;20.884;2023-02-18T03:12:59;6.65;;;1.80;;
21274;SDS011;36472;52.170;20.884;2023-02-18T03:15:41;9.05;;;2.30;;
21274;SDS011;36472;52.170;20.884;2023-02-18T03:18:19;6.72;;;1.90;;
21274;SDS011;36472;52.170;20.884;2023-02-18T03:21:03;9.55;;;2.03;;
21274;SDS011;36472;52.170;20.884;2023-02-18T03:23:40;13.13;;;2.00;;
21274;SDS011;36472;52.170;20.884;2023-02-18T03:26:16;10.80;;;2.17;;
21274;SDS011;36472;52.170;20.884;2023-02-18T03:28:48;7.13;;;2.00;;
21274;SDS011;36472;52.170;20.884;2023-02-18T03:31:24;9.50;;;2.25;;
21274;SDS011;36472;52.170;20.884;2023-02-18T03:33:58;8.20;;;2.15;;
21274;SDS011;36472;52.170;20.884;2023-02-18T03:36:32;10.18;;;2.45;;
21274;SDS011;36472;52.170;20.884;2023-02-18T03:39:08;13.05;;;2.53;;
21274;SDS011;36472;52.170;20.884;2023-02-18T03:41:43;8.57;;;2.03;;
21274;SDS011;36472;52.170;20.884;2023-02-18T03:44:13;11.10;;;2.30;;
21274;SDS011;36472;52.170;20.884;2023-02-18T03:46:42;6.90;;;2.00;;
21274;SDS011;36472;52.170;20.884;2023-02-18T03:49:12;6.78;;;2.22;;
21274;SDS011;36472;52.170;20.884;2023-02-18T03:51:42;11.20;;;2.33;;
21274;SDS011;36472;52.170;20.884;2023-02-18T03:54:13;9.48;;;2.17;;
21274;SDS011;36472;52.170;20.884;2023-02-18T03:56:42;6.47;;;1.95;;
21274;SDS011;36472;52.170;20.884;2023-02-18T03:59:11;11.32;;;2.70;;
21274;SDS011;36472;52.170;20.884;2023-02-18T04:01:41;10.40;;;2.30;;
21274;SDS011;36472;52.170;20.884;2023-02-18T04:04:10;5.70;;;1.73;;
21274;SDS011;36472;52.170;20.884;2023-02-18T04:06:39;9.52;;;2.30;;
21274;SDS011;36472;52.170;20.884;2023-02-18T04:09:08;6.10;;;2.33;;
21274;SDS011;36472;52.170;20.884;2023-02-18T04:11:39;10.98;;;2.55;;
21274;SDS011;36472;52.170;20.884;2023-02-18T04:14:08;8.50;;;2.08;;
21274;SDS011;36472;52.170;20.884;2023-02-18T04:16:41;9.07;;;2.30;;
21274;SDS011;36472;52.170;20.884;2023-02-18T04:19:10;9.43;;;2.10;;
21274;SDS011;36472;52.170;20.884;2023-02-18T04:21:39;11.00;;;2.17;;
21274;SDS011;36472;52.170;20.884;2023-02-18T04:24:08;7.22;;;1.95;;
21274;SDS011;36472;52.170;20.884;2023-02-18T04:26:38;8.52;;;1.92;;
21274;SDS011;36472;52.170;20.884;2023-02-18T04:29:07;7.97;;;2.15;;
21274;SDS011;36472;52.170;20.884;2023-02-18T04:31:36;8.00;;;2.13;;
21274;SDS011;36472;52.170;20.884;2023-02-18T04:34:05;9.57;;;2.22;;
21274;SDS011;36472;52.170;20.884;2023-02-18T04:36:35;11.60;;;2.80;;
21274;SDS011;36472;52.170;20.884;2023-02-18T04:39:04;10.68;;;2.10;;
21274;SDS011;36472;52.170;20.884;2023-02-18T04:41:33;12.70;;;2.67;;
21274;SDS011;36472;52.170;20.884;2023-02-18T04:44:03;7.72;;;1.92;;
21274;SDS011;36472;52.170;20.884;2023-02-18T04:46:32;8.07;;;2.15;;
21274;SDS011;36472;52.170;20.884;2023-02-18T04:49:01;10.05;;;1.52;;
21274;SDS011;36472;52.170;20.884;2023-02-18T04:51:30;8.07;;;1.90;;
21274;SDS011;36472;52.170;20.884;2023-02-18T04:54:18;7.35;;;2.03;;
21274;SDS011;36472;52.170;20.884;2023-02-18T04:56:47;8.93;;;2.10;;
21274;SDS011;36472;52.170;20.884;2023-02-18T04:59:17;8.27;;;1.92;;
21274;SDS011;36472;52.170;20.884;2023-02-18T05:01:46;8.15;;;1.67;;
21274;SDS011;36472;52.170;20.884;2023-02-18T05:04:15;10.25;;;1.98;;
21274;SDS011;36472;52.170;20.884;2023-02-18T05:06:45;7.07;;;1.90;;
21274;SDS011;36472;52.170;20.884;2023-02-18T05:09:13;9.10;;;2.20;;
21274;SDS011;36472;52.170;20.884;2023-02-18T05:11:43;10.75;;;2.05;;
21274;SDS011;36472;52.170;20.884;2023-02-18T05:14:13;10.82;;;2.10;;
21274;SDS011;36472;52.170;20.884;2023-02-18T05:16:44;8.98;;;2.60;;
21274;SDS011;36472;52.170;20.884;2023-02-18T05:19:13;7.47;;;1.95;;
21274;SDS011;36472;52.170;20.884;2023-02-18T05:21:44;9.90;;;1.95;;
21274;SDS011;36472;52.170;20.884;2023-02-18T05:24:13;8.05;;;2.50;;
21274;SDS011;36472;52.170;20.884;2023-02-18T05:26:42;7.35;;;2.13;;
21274;SDS011;36472;52.170;20.884;2023-02-18T05:29:11;7.10;;;2.08;;
21274;SDS011;36472;52.170;20.884;2023-02-18T05:31:40;10.55;;;2.38;;
21274;SDS011;36472;52.170;20.884;2023-02-18T05:34:10;7.80;;;2.40;;
21274;SDS011;36472;52.170;20.884;2023-02-18T05:36:39;13.13;;;3.40;;
21274;SDS011;36472;52.170;20.884;2023-02-18T05:39:08;8.68;;;2.20;;
21274;SDS011;36472;52.170;20.884;2023-02-18T05:41:37;7.68;;;2.03;;
21274;SDS011;36472;52.170;20.884;2023-02-18T05:44:06;10.82;;;2.67;;
21274;SDS011;36472;52.170;20.884;2023-02-18T05:46:53;10.68;;;2.67;;
21274;SDS011;36472;52.170;20.884;2023-02-18T05:49:23;8.35;;;2.22;;
21274;SDS011;36472;52.170;20.884;2023-02-18T05:51:52;10.40;;;2.25;;
21274;SDS011;36472;52.170;20.884;2023-02-18T05:54:21;9.68;;;2.58;;
21274;SDS011;36472;52.170;20.884;2023-02-18T05:56:51;10.85;;;2.25;;
21274;SDS011;36472;52.170;20.884;2023-02-18T05:59:20;11.52;;;2.40;;
21274;SDS011;36472;52.170;20.884;2023-02-18T06:01:50;9.30;;;2.30;;
21274;SDS011;36472;52.170;20.884;2023-02-18T06:04:19;8.25;;;2.35;;
21274;SDS011;36472;52.170;20.884;2023-02-18T06:06:50;10.43;;;2.53;;
21274;SDS011;36472;52.170;20.884;2023-02-18T06:09:19;8.73;;;2.53;;
21274;SDS011;36472;52.170;20.884;2023-02-18T06:11:48;5.28;;;2.42;;
21274;SDS011;36472;52.170;20.884;2023-02-18T06:14:17;9.15;;;2.50;;
21274;SDS011;36472;52.170;20.884;2023-02-18T06:16:46;8.95;;;2.08;;
21274;SDS011;36472;52.170;20.884;2023-02-18T06:19:15;8.40;;;2.33;;
21274;SDS011;36472;52.170;20.884;2023-02-18T06:21:44;9.48;;;2.25;;
21274;SDS011;36472;52.170;20.884;2023-02-18T06:24:14;9.68;;;2.03;;
21274;SDS011;36472;52.170;20.884;2023-02-18T06:26:44;8.98;;;2.35;;
21274;SDS011;36472;52.170;20.884;2023-02-18T06:29:12;9.60;;;2.45;;
21274;SDS011;36472;52.170;20.884;2023-02-18T06:31:42;8.13;;;2.00;;
21274;SDS011;36472;52.170;20.884;2023-02-18T06:34:11;9.02;;;2.55;;
21274;SDS011;36472;52.170;20.884;2023-02-18T06:36:40;9.30;;;2.50;;
21274;SDS011;36472;52.170;20.884;2023-02-18T06:39:08;11.55;;;2.22;;
21274;SDS011;36472;52.170;20.884;2023-02-18T06:41:39;9.23;;;2.33;;
21274;SDS011;36472;52.170;20.884;2023-02-18T06:44:08;11.63;;;2.20;;
21274;SDS011;36472;52.170;20.884;2023-02-18T06:46:37;9.65;;;2.53;;
21274;SDS011;36472;52.170;20.884;2023-02-18T06:49:06;11.13;;;2.30;;
21274;SDS011;36472;52.170;20.884;2023-02-18T06:51:36;7.93;;;2.33;;
21274;SDS011;36472;52.170;20.884;2023-02-18T06:54:05;8.40;;;2.58;;
21274;SDS011;36472;52.170;20.884;2023-02-18T06:56:34;7.32;;;1.77;;
21274;SDS011;36472;52.170;20.884;2023-02-18T06:59:04;8.63;;;2.10;;
21274;SDS011;36472;52.170;20.884;2023-02-18T07:01:34;9.18;;;2.67;;
21274;SDS011;36472;52.170;20.884;2023-02-18T07:04:03;9.73;;;2.15;;
21274;SDS011;36472;52.170;20.884;2023-02-18T07:06:32;12.48;;;2.45;;
21274;SDS011;36472;52.170;20.884;2023-02-18T07:09:01;9.85;;;2.25;;
21274;SDS011;36472;52.170;20.884;2023-02-18T07:11:30;10.07;;;2.40;;
21274;SDS011;36472;52.170;20.884;2023-02-18T07:13:59;9.57;;;2.20;;
21274;SDS011;36472;52.170;20.884;2023-02-18T07:16:30;10.60;;;2.10;;
21274;SDS011;36472;52.170;20.884;2023-02-18T07:18:59;8.52;;;2.15;;
21274;SDS011;36472;52.170;20.884;2023-02-18T07:21:28;7.28;;;1.98;;
21274;SDS011;36472;52.170;20.884;2023-02-18T07:23:57;7.75;;;2.40;;
21274;SDS011;36472;52.170;20.884;2023-02-18T07:26:26;9.35;;;2.38;;
21274;SDS011;36472;52.170;20.884;2023-02-18T07:28:55;7.25;;;2.03;;
21274;SDS011;36472;52.170;20.884;2023-02-18T07:31:24;7.28;;;2.05;;
21274;SDS011;36472;52.170;20.884;2023-02-18T07:33:54;8.75;;;2.40;;
21274;SDS011;36472;52.170;20.884;2023-02-18T07:36:23;8.25;;;2.03;;
21274;SDS011;36472;52.170;20.884;2023-02-18T07:38:52;6.68;;;1.90;;
21274;SDS011;36472;52.170;20.884;2023-02-18T07:41:22;9.73;;;2.15;;
21274;SDS011;36472;52.170;20.884;2023-02-18T07:43:52;7.22;;;2.38;;
21274;SDS011;36472;52.170;20.884;2023-02-18T07:46:21;7.95;;;2.50;;
21274;SDS011;36472;52.170;20.884;2023-02-18T07:48:50;11.13;;;2.25;;
21274;SDS011;36472;52.170;20.884;2023-02-18T07:51:20;9.45;;;2.50;;
21274;SDS011;36472;52.170;20.884;2023-02-18T07:53:49;4.90;;;1.95;;
21274;SDS011;36472;52.170;20.884;2023-02-18T07:56:19;7.88;;;2.40;;
21274;SDS011;36472;52.170;20.884;2023-02-18T07:58:47;11.35;;;2.38;;
21274;SDS011;36472;52.170;20.884;2023-02-18T08:01:17;8.48;;;2.22;;
21274;SDS011;36472;52.170;20.884;2023-02-18T08:03:45;8.82;;;2.30;;
21274;SDS011;36472;52.170;20.884;2023-02-18T08:06:18;6.82;;;1.88;;
21274;SDS011;36472;52.170;20.884;2023-02-18T08:08:54;12.50;;;3.15;;
21274;SDS011;36472;52.170;20.884;2023-02-18T08:11:23;7.88;;;2.63;;
21274;SDS011;36472;52.170;20.884;2023-02-18T08:13:52;8.55;;;2.40;;
21274;SDS011;36472;52.170;20.884;2023-02-18T08:16:21;9.07;;;2.33;;
21274;SDS011;36472;52.170;20.884;2023-02-18T08:18:51;9.52;;;2.20;;
21274;SDS011;36472;52.170;20.884;2023-02-18T08:21:23;11.73;;;2.72;;
21274;SDS011;36472;52.170;20.884;2023-02-18T08:23:53;10.20;;;2.17;;
21274;SDS011;36472;52.170;20.884;2023-02-18T08:26:22;8.68;;;2.53;;
21274;SDS011;36472;52.170;20.884;2023-02-18T08:28:51;14.43;;;2.97;;
21274;SDS011;36472;52.170;20.884;2023-02-18T08:31:21;8.23;;;2.75;;
21274;SDS011;36472;52.170;20.884;2023-02-18T08:33:53;8.48;;;2.60;;
21274;SDS011;36472;52.170;20.884;2023-02-18T08:36:26;10.48;;;2.70;;
21274;SDS011;36472;52.170;20.884;2023-02-18T08:38:56;8.52;;;2.33;;
21274;SDS011;36472;52.170;20.884;2023-02-18T08:41:25;9.30;;;2.47;;
21274;SDS011;36472;52.170;20.884;2023-02-18T08:43:54;10.60;;;2.60;;
21274;SDS011;36472;52.170;20.884;2023-02-18T08:46:23;9.32;;;2.80;;
21274;SDS011;36472;52.170;20.884;2023-02-18T08:49:03;8.70;;;2.40;;
21274;SDS011;36472;52.170;20.884;2023-02-18T08:51:34;7.90;;;2.58;;
21274;SDS011;36472;52.170;20.884;2023-02-18T08:54:03;6.38;;;2.22;;
21274;SDS011;36472;52.170;20.884;2023-02-18T08:56:32;10.85;;;2.78;;
21274;SDS011;36472;52.170;20.884;2023-02-18T08:59:01;8.25;;;2.53;;
21274;SDS011;36472;52.170;20.884;2023-02-18T09:01:30;8.40;;;2.60;;
21274;SDS011;36472;52.170;20.884;2023-02-18T09:03:59;11.68;;;3.38;;
21274;SDS011;36472;52.170;20.884;2023-02-18T09:06:28;9.02;;;2.40;;
21274;SDS011;36472;52.170;20.884;2023-02-18T09:08:59;14.07;;;2.78;;
21274;SDS011;36472;52.170;20.884;2023-02-18T09:11:28;10.18;;;2.35;;
21274;SDS011;36472;52.170;20.884;2023-02-18T09:13:57;8.40;;;2.63;;
21274;SDS011;36472;52.170;20.884;2023-02-18T09:16:26;11.63;;;2.97;;
21274;SDS011;36472;52.170;20.884;2023-02-18T09:18:55;7.65;;;2.40;;
21274;SDS011;36472;52.170;20.884;2023-02-18T09:21:25;11.25;;;3.15;;
21274;SDS011;36472;52.170;20.884;2023-02-18T09:23:55;10.02;;;2.67;;
21274;SDS011;36472;52.170;20.884;2023-02-18T09:26:26;8.75;;;2.72;;
21274;SDS011;36472;52.170;20.884;2023-02-18T09:28:55;8.60;;;2.40;;
21274;SDS011;36472;52.170;20.884;2023-02-18T09:31:25;11.73;;;2.80;;
21274;SDS011;36472;52.170;20.884;2023-02-18T09:33:56;8.43;;;2.70;;
21274;SDS011;36472;52.170;20.884;2023-02-18T09:36:28;8.45;;;2.60;;
21274;SDS011;36472;52.170;20.884;2023-02-18T09:38:57;8.30;;;3.25;;
21274;SDS011;36472;52.170;20.884;2023-02-18T09:41:30;10.13;;;2.65;;
21274;SDS011;36472;52.170;20.884;2023-02-18T09:44:08;6.63;;;2.75;;
21274;SDS011;36472;52.170;20.884;2023-02-18T09:46:45;10.55;;;2.65;;
21274;SDS011;36472;52.170;20.884;2023-02-18T09:49:20;7.53;;;2.90;;
21274;SDS011;36472;52.170;20.884;2023-02-18T09:51:54;8.90;;;2.92;;
21274;SDS011;36472;52.170;20.884;2023-02-18T09:54:28;13.25;;;3.38;;
21274;SDS011;36472;52.170;20.884;2023-02-18T09:56:58;8.70;;;3.28;;
21274;SDS011;36472;52.170;20.884;2023-02-18T09:59:31;10.65;;;2.83;;
21274;SDS011;36472;52.170;20.884;2023-02-18T10:02:00;5.75;;;2.75;;
21274;SDS011;36472;52.170;20.884;2023-02-18T10:04:32;9.15;;;2.60;;
21274;SDS011;36472;52.170;20.884;2023-02-18T10:07:08;7.68;;;2.53;;
21274;SDS011;36472;52.170;20.884;2023-02-18T10:09:54;8.43;;;2.80;;
21274;SDS011;36472;52.170;20.884;2023-02-18T10:12:28;10.18;;;3.42;;
21274;SDS011;36472;52.170;20.884;2023-02-18T10:15:00;11.75;;;3.25;;
21274;SDS011;36472;52.170;20.884;2023-02-18T10:17:30;8.35;;;2.85;;
21274;SDS011;36472;52.170;20.884;2023-02-18T10:20:00;7.93;;;2.42;;
21274;SDS011;36472;52.170;20.884;2023-02-18T10:22:34;9.77;;;3.30;;
21274;SDS011;36472;52.170;20.884;2023-02-18T10:25:06;9.55;;;2.42;;
21274;SDS011;36472;52.170;20.884;2023-02-18T10:27:37;8.73;;;2.50;;
21274;SDS011;36472;52.170;20.884;2023-02-18T10:30:20;13.23;;;2.75;;
21274;SDS011;36472;52.170;20.884;2023-02-18T10:32:53;10.00;;;3.15;;
21274;SDS011;36472;52.170;20.884;2023-02-18T10:35:29;10.93;;;3.22;;
21274;SDS011;36472;52.170;20.884;2023-02-18T10:38:07;13.30;;;3.20;;
21274;SDS011;36472;52.170;20.884;2023-02-18T10:40:55;9.90;;;2.63;;
21274;SDS011;36472;52.170;20.884;2023-02-18T10:43:38;12.45;;;2.72;;
21274;SDS011;36472;52.170;20.884;2023-02-18T10:46:24;11.75;;;3.05;;
21274;SDS011;36472;52.170;20.884;2023-02-18T10:49:08;15.13;;;3.30;;
21274;SDS011;36472;52.170;20.884;2023-02-18T10:52:03;11.70;;;3.53;;
21274;SDS011;36472;52.170;20.884;2023-02-18T10:54:47;9.80;;;3.10;;
21274;SDS011;36472;52.170;20.884;2023-02-18T10:57:20;14.23;;;3.67;;
21274;SDS011;36472;52.170;20.884;2023-02-18T10:59:57;11.80;;;3.47;;
21274;SDS011;36472;52.170;20.884;2023-02-18T11:02:37;9.45;;;3.17;;
21274;SDS011;36472;52.170;20.884;2023-02-18T11:05:15;8.80;;;2.80;;
21274;SDS011;36472;52.170;20.884;2023-02-18T11:07:50;10.07;;;3.47;;
21274;SDS011;36472;52.170;20.884;2023-02-18T11:10:25;11.93;;;3.72;;
21274;SDS011;36472;52.170;20.884;2023-02-18T11:13:00;17.20;;;3.92;;
21274;SDS011;36472;52.170;20.884;2023-02-18T11:15:35;9.40;;;3.05;;
21274;SDS011;36472;52.170;20.884;2023-02-18T11:18:22;8.30;;;3.35;;
21274;SDS011;36472;52.170;20.884;2023-02-18T11:21:00;10.52;;;2.83;;
21274;SDS011;36472;52.170;20.884;2023-02-18T11:23:36;11.70;;;3.72;;
21274;SDS011;36472;52.170;20.884;2023-02-18T11:26:16;12.40;;;3.35;;
21274;SDS011;36472;52.170;20.884;2023-02-18T11:28:55;11.50;;;3.53;;
21274;SDS011;36472;52.170;20.884;2023-02-18T11:31:35;11.82;;;3.05;;
21274;SDS011;36472;52.170;20.884;2023-02-18T11:34:13;8.50;;;2.97;;
21274;SDS011;36472;52.170;20.884;2023-02-18T11:36:47;14.77;;;3.83;;
21274;SDS011;36472;52.170;20.884;2023-02-18T11:39:19;8.77;;;2.92;;
21274;SDS011;36472;52.170;20.884;2023-02-18T11:41:53;13.23;;;3.33;;
21274;SDS011;36472;52.170;20.884;2023-02-18T11:44:26;9.82;;;3.00;;
21274;SDS011;36472;52.170;20.884;2023-02-18T11:47:00;11.00;;;3.00;;
21274;SDS011;36472;52.170;20.884;2023-02-18T11:49:33;9.27;;;2.78;;
21274;SDS011;36472;52.170;20.884;2023-02-18T11:52:04;12.82;;;2.80;;
21274;SDS011;36472;52.170;20.884;2023-02-18T11:54:57;8.68;;;3.38;;
21274;SDS011;36472;52.170;20.884;2023-02-18T11:57:29;8.77;;;3.03;;
21274;SDS011;36472;52.170;20.884;2023-02-18T12:00:02;12.57;;;3.35;;
21274;SDS011;36472;52.170;20.884;2023-02-18T12:02:49;9.75;;;3.22;;
21274;SDS011;36472;52.170;20.884;2023-02-18T12:05:22;10.27;;;2.92;;
21274;SDS011;36472;52.170;20.884;2023-02-18T12:07:55;11.50;;;3.85;;
21274;SDS011;36472;52.170;20.884;2023-02-18T12:10:34;13.48;;;3.97;;
21274;SDS011;36472;52.170;20.884;2023-02-18T12:13:13;10.90;;;3.63;;
21274;SDS011;36472;52.170;20.884;2023-02-18T12:15:54;8.20;;;3.20;;
21274;SDS011;36472;52.170;20.884;2023-02-18T12:18:45;15.25;;;4.05;;
21274;SDS011;36472;52.170;20.884;2023-02-18T12:21:43;10.25;;;3.50;;
21274;SDS011;36472;52.170;20.884;2023-02-18T12:24:34;9.02;;;3.20;;
21274;SDS011;36472;52.170;20.884;2023-02-18T12:27:26;12.40;;;3.47;;
21274;SDS011;36472;52.170;20.884;2023-02-18T12:30:19;10.35;;;3.63;;
21274;SDS011;36472;52.170;20.884;2023-02-18T12:33:07;11.93;;;3.05;;
21274;SDS011;36472;52.170;20.884;2023-02-18T12:35:54;11.65;;;3.67;;
21274;SDS011;36472;52.170;20.884;2023-02-18T12:38:45;10.98;;;3.33;;
21274;SDS011;36472;52.170;20.884;2023-02-18T12:41:26;10.20;;;3.00;;
21274;SDS011;36472;52.170;20.884;2023-02-18T12:44:19;10.35;;;3.20;;
21274;SDS011;36472;52.170;20.884;2023-02-18T12:50:15;10.43;;;3.47;;
21274;SDS011;36472;52.170;20.884;2023-02-18T12:53:15;11.07;;;3.22;;
21274;SDS011;36472;52.170;20.884;2023-02-18T12:56:11;10.07;;;3.40;;
21274;SDS011;36472;52.170;20.884;2023-02-18T12:59:05;12.13;;;3.72;;
21274;SDS011;36472;52.170;20.884;2023-02-18T13:01:59;12.40;;;3.53;;
21274;SDS011;36472;52.170;20.884;2023-02-18T13:04:50;11.52;;;3.15;;
21274;SDS011;36472;52.170;20.884;2023-02-18T13:07:43;11.13;;;3.60;;
21274;SDS011;36472;52.170;20.884;2023-02-18T13:10:37;11.77;;;4.05;;
21274;SDS011;36472;52.170;20.884;2023-02-18T13:13:28;12.52;;;3.45;;
21274;SDS011;36472;52.170;20.884;2023-02-18T13:16:05;10.23;;;2.97;;
21274;SDS011;36472;52.170;20.884;2023-02-18T13:18:40;8.27;;;3.67;;
21274;SDS011;36472;52.170;20.884;2023-02-18T13:21:17;9.70;;;3.40;;
21274;SDS011;36472;52.170;20.884;2023-02-18T13:23:47;9.80;;;3.33;;
21274;SDS011;36472;52.170;20.884;2023-02-18T13:26:25;11.63;;;3.33;;
21274;SDS011;36472;52.170;20.884;2023-02-18T13:29:03;10.98;;;3.25;;
21274;SDS011;36472;52.170;20.884;2023-02-18T13:31:53;8.43;;;3.35;;
21274;SDS011;36472;52.170;20.884;2023-02-18T13:34:38;9.75;;;3.78;;
21274;SDS011;36472;52.170;20.884;2023-02-18T13:37:19;11.02;;;3.67;;
21274;SDS011;36472;52.170;20.884;2023-02-18T13:39:58;10.60;;;3.78;;
21274;SDS011;36472;52.170;20.884;2023-02-18T13:42:35;10.93;;;3.67;;
21274;SDS011;36472;52.170;20.884;2023-02-18T13:45:06;11.15;;;4.13;;
21274;SDS011;36472;52.170;20.884;2023-02-18T13:47:56;9.98;;;3.38;;
21274;SDS011;36472;52.170;20.884;2023-02-18T13:50:28;8.68;;;3.45;;
21274;SDS011;36472;52.170;20.884;2023-02-18T13:53:22;10.43;;;3.58;;
21274;SDS011;36472;52.170;20.884;2023-02-18T13:55:56;7.82;;;3.05;;
21274;SDS011;36472;52.170;20.884;2023-02-18T13:58:35;12.27;;;3.40;;
21274;SDS011;36472;52.170;20.884;2023-02-18T14:01:13;9.30;;;3.08;;
21274;SDS011;36472;52.170;20.884;2023-02-18T14:03:51;9.02;;;3.13;;
21274;SDS011;36472;52.170;20.884;2023-02-18T14:06:28;9.50;;;3.00;;
21274;SDS011;36472;52.170;20.884;2023-02-18T14:12:16;11.02;;;3.30;;
21274;SDS011;36472;52.170;20.884;2023-02-18T14:15:40;9.43;;;2.95;;
21274;SDS011;36472;52.170;20.884;2023-02-18T14:21:34;11.60;;;3.25;;
21274;SDS011;36472;52.170;20.884;2023-02-18T14:24:06;11.05;;;3.25;;
21274;SDS011;36472;52.170;20.884;2023-02-18T14:26:39;10.85;;;4.10;;
21274;SDS011;36472;52.170;20.884;2023-02-18T14:29:18;11.35;;;4.10;;
21274;SDS011;36472;52.170;20.884;2023-02-18T14:31:58;11.38;;;4.72;;
21274;SDS011;36472;52.170;20.884;2023-02-18T14:34:46;12.10;;;3.55;;
21274;SDS011;36472;52.170;20.884;2023-02-18T14:38:09;11.38;;;3.63;;
21274;SDS011;36472;52.170;20.884;2023-02-18T14:41:10;9.38;;;3.30;;
21274;SDS011;36472;52.170;20.884;2023-02-18T14:44:19;12.70;;;5.68;;
21274;SDS011;36472;52.170;20.884;2023-02-18T14:47:13;10.43;;;3.67;;
21274;SDS011;36472;52.170;20.884;2023-02-18T14:49:56;10.43;;;3.75;;
21274;SDS011;36472;52.170;20.884;2023-02-18T14:52:30;9.70;;;3.58;;
21274;SDS011;36472;52.170;20.884;2023-02-18T14:55:04;12.07;;;3.22;;
21274;SDS011;36472;52.170;20.884;2023-02-18T14:57:43;11.70;;;3.55;;
21274;SDS011;36472;52.170;20.884;2023-02-18T15:00:18;6.47;;;2.67;;
21274;SDS011;36472;52.170;20.884;2023-02-18T15:02:53;8.32;;;3.13;;
21274;SDS011;36472;52.170;20.884;2023-02-18T15:05:23;4.05;;;1.90;;
21274;SDS011;36472;52.170;20.884;2023-02-18T15:07:57;7.38;;;2.65;;
21274;SDS011;36472;52.170;20.884;2023-02-18T15:10:36;6.40;;;3.00;;
21274;SDS011;36472;52.170;20.884;2023-02-18T15:13:12;5.72;;;2.95;;
21274;SDS011;36472;52.170;20.884;2023-02-18T15:15:47;7.20;;;2.85;;
21274;SDS011;36472;52.170;20.884;2023-02-18T15:18:27;7.18;;;2.92;;
21274;SDS011;36472;52.170;20.884;2023-02-18T15:21:01;10.15;;;4.00;;
21274;SDS011;36472;52.170;20.884;2023-02-18T15:23:34;9.73;;;5.05;;
21274;SDS011;36472;52.170;20.884;2023-02-18T15:26:10;8.98;;;4.50;;
21274;SDS011;36472;52.170;20.884;2023-02-18T15:28:53;8.30;;;3.38;;
21274;SDS011;36472;52.170;20.884;2023-02-18T15:31:32;9.77;;;4.20;;
21274;SDS011;36472;52.170;20.884;2023-02-18T15:34:16;11.18;;;4.82;;